Time;durP1;ratioP1;P1;durP2;ratioP2;P2;SDS_P1;SDS_P2;PMS_P1;PMS_P2;Temp;Humidity;BMP_temperature;BMP_pressure;BME280_temperature;BME280_humidity;BME280_pressure;Samples;Min_cycle;Max_cycle;Signal;HPM_P1;HPM_P2
2021/03/20 00:00:28;;;;;;;1.93;0.90;;;;;;;;;;5031651;28;20194;-80
2021/03/20 00:02:56;;;;;;;2.10;1.10;;;;;;;;;;5030405;28;20216;-80
2021/03/20 00:05:22;;;;;;;5.03;1.30;;;;;;;;;;5032809;28;20253;-80
2021/03/20 00:07:48;;;;;;;2.63;1.30;;;;;;;;;;5017056;28;20586;-79
2021/03/20 00:10:16;;;;;;;2.83;1.37;;;;;;;;;;5035295;28;20210;-80
2021/03/20 00:12:43;;;;;;;3.17;1.50;;;;;;;;;;5032811;28;20186;-78
2021/03/20 00:15:10;;;;;;;3.50;1.00;;;;;;;;;;5034089;28;20186;-80
2021/03/20 00:17:35;;;;;;;3.93;1.50;;;;;;;;;;5018009;28;20714;-80
2021/03/20 00:20:01;;;;;;;2.47;1.23;;;;;;;;;;5032380;28;20183;-81
2021/03/20 00:22:26;;;;;;;2.43;1.30;;;;;;;;;;5029429;28;20191;-80
2021/03/20 00:24:52;;;;;;;2.27;1.10;;;;;;;;;;5032912;28;20225;-80
2021/03/20 00:27:17;;;;;;;3.57;1.20;;;;;;;;;;5030919;28;20641;-80
2021/03/20 00:29:43;;;;;;;3.80;1.20;;;;;;;;;;5029626;28;20547;-80
2021/03/20 00:32:08;;;;;;;3.47;1.10;;;;;;;;;;5035769;28;20190;-80
2021/03/20 00:34:33;;;;;;;3.50;1.13;;;;;;;;;;5032602;28;20278;-80
2021/03/20 00:36:59;;;;;;;4.07;1.20;;;;;;;;;;5034149;28;20232;-80
2021/03/20 00:39:24;;;;;;;1.27;1.00;;;;;;;;;;5035953;28;20552;-80
2021/03/20 00:41:49;;;;;;;5.33;1.40;;;;;;;;;;5017719;28;20194;-80
2021/03/20 00:44:14;;;;;;;5.00;1.17;;;;;;;;;;5032879;28;20210;-80
2021/03/20 00:46:40;;;;;;;3.00;1.40;;;;;;;;;;5040269;28;20305;-80
2021/03/20 00:49:06;;;;;;;4.27;1.17;;;;;;;;;;5032369;28;20186;-80
2021/03/20 00:51:31;;;;;;;1.47;1.00;;;;;;;;;;5033619;28;20186;-80
2021/03/20 00:53:57;;;;;;;3.07;1.30;;;;;;;;;;5034533;28;20246;-80
2021/03/20 00:56:22;;;;;;;2.97;1.00;;;;;;;;;;5014759;28;20237;-80
2021/03/20 00:58:47;;;;;;;3.10;1.20;;;;;;;;;;5032469;28;20226;-79
2021/03/20 01:01:19;;;;;;;4.17;1.60;;;;;;;;;;5026054;28;20202;-80
2021/03/20 01:03:45;;;;;;;2.27;1.20;;;;;;;;;;5031244;28;20215;-80
2021/03/20 01:06:17;;;;;;;4.67;1.10;;;;;;;;;;5028396;28;20215;-80
2021/03/20 01:08:42;;;;;;;3.17;1.10;;;;;;;;;;5028691;28;20663;-80
2021/03/20 01:11:10;;;;;;;4.17;1.43;;;;;;;;;;5016628;28;20183;-80
2021/03/20 01:13:35;;;;;;;3.53;1.40;;;;;;;;;;5013137;28;20183;-80
2021/03/20 01:16:01;;;;;;;3.90;1.20;;;;;;;;;;5031743;28;20667;-80
2021/03/20 01:18:27;;;;;;;2.57;1.30;;;;;;;;;;5031940;28;20247;-79
2021/03/20 01:20:53;;;;;;;2.87;1.17;;;;;;;;;;5031851;28;20667;-80
2021/03/20 01:23:18;;;;;;;5.77;1.63;;;;;;;;;;5034346;28;20201;-79
2021/03/20 01:25:44;;;;;;;6.27;1.60;;;;;;;;;;5032172;28;20199;-81
2021/03/20 01:28:09;;;;;;;3.40;1.30;;;;;;;;;;5032659;28;20228;-80
2021/03/20 01:30:40;;;;;;;2.67;1.30;;;;;;;;;;5030987;28;20686;-79
2021/03/20 01:33:06;;;;;;;2.60;1.30;;;;;;;;;;5026616;28;20179;-80
2021/03/20 01:35:32;;;;;;;4.00;1.23;;;;;;;;;;5033828;28;20673;-79
2021/03/20 01:37:58;;;;;;;3.13;1.10;;;;;;;;;;5034264;28;20241;-79
2021/03/20 01:40:26;;;;;;;4.47;1.30;;;;;;;;;;5029696;28;20198;-81
2021/03/20 01:42:52;;;;;;;2.53;1.30;;;;;;;;;;5031122;28;20341;-81
2021/03/20 01:45:27;;;;;;;3.73;1.20;;;;;;;;;;5028361;28;20270;-80
2021/03/20 01:47:57;;;;;;;3.63;1.23;;;;;;;;;;5032857;28;20207;-80
2021/03/20 01:50:35;;;;;;;1.73;1.00;;;;;;;;;;5026535;28;20577;-80
2021/03/20 01:53:33;;;;;;;2.40;1.10;;;;;;;;;;5017669;28;20269;-80
2021/03/20 01:56:00;;;;;;;2.77;1.30;;;;;;;;;;5007078;28;20767;-80
2021/03/20 01:58:30;;;;;;;2.53;1.40;;;;;;;;;;5014408;28;20282;-80
2021/03/20 02:01:09;;;;;;;2.87;1.23;;;;;;;;;;5010816;28;20202;-80
2021/03/20 02:03:35;;;;;;;4.13;1.33;;;;;;;;;;5030499;28;20229;-79
2021/03/20 02:06:01;;;;;;;2.23;1.43;;;;;;;;;;5018070;28;20313;-79
2021/03/20 02:08:28;;;;;;;3.77;1.60;;;;;;;;;;5027340;28;20194;-80
2021/03/20 02:11:00;;;;;;;2.30;1.23;;;;;;;;;;5028739;28;20233;-80
2021/03/20 02:13:39;;;;;;;2.43;1.30;;;;;;;;;;5030296;28;20783;-79
2021/03/20 02:16:30;;;;;;;3.50;1.40;;;;;;;;;;5034963;28;20206;-80
2021/03/20 02:19:01;;;;;;;5.17;1.20;;;;;;;;;;5029850;28;20728;-80
2021/03/20 02:21:31;;;;;;;4.20;1.30;;;;;;;;;;5027222;28;20194;-78
2021/03/20 02:24:14;;;;;;;4.50;1.97;;;;;;;;;;5015510;28;20206;-79
2021/03/20 02:27:04;;;;;;;7.87;2.47;;;;;;;;;;5028301;28;20218;-79
2021/03/20 02:29:32;;;;;;;7.23;2.10;;;;;;;;;;5031720;28;20190;-79
2021/03/20 02:32:24;;;;;;;3.67;1.80;;;;;;;;;;5012883;28;20599;-81
2021/03/20 02:35:04;;;;;;;4.10;1.60;;;;;;;;;;5029979;28;20191;-80
2021/03/20 02:37:32;;;;;;;2.20;1.60;;;;;;;;;;5022684;28;20218;-79
2021/03/20 02:40:06;;;;;;;2.30;1.63;;;;;;;;;;5030419;28;20193;-80
2021/03/20 02:43:00;;;;;;;4.20;1.87;;;;;;;;;;5030037;28;20206;-79
2021/03/20 02:45:40;;;;;;;2.70;1.77;;;;;;;;;;5019662;28;20191;-80
2021/03/20 02:48:15;;;;;;;4.27;2.00;;;;;;;;;;5029441;28;20596;-80
2021/03/20 02:50:50;;;;;;;7.20;2.87;;;;;;;;;;5008399;28;20262;-80
2021/03/20 02:53:33;;;;;;;7.33;3.10;;;;;;;;;;5026023;28;20190;-81
2021/03/20 02:56:00;;;;;;;5.23;2.60;;;;;;;;;;5013311;28;20221;-80
2021/03/20 02:58:33;;;;;;;4.60;2.40;;;;;;;;;;5027801;28;20190;-80
2021/03/20 03:01:03;;;;;;;4.63;2.60;;;;;;;;;;5006472;28;20246;-80
2021/03/20 03:03:33;;;;;;;4.87;2.43;;;;;;;;;;5025248;28;20686;-80
2021/03/20 03:06:07;;;;;;;6.07;2.83;;;;;;;;;;5023206;28;20194;-80
2021/03/20 03:08:38;;;;;;;5.80;2.33;;;;;;;;;;5027282;28;20213;-80
2021/03/20 03:11:07;;;;;;;4.03;2.17;;;;;;;;;;5031454;28;20213;-80
2021/03/20 03:13:36;;;;;;;4.57;2.10;;;;;;;;;;5029361;28;20178;-80
2021/03/20 03:16:13;;;;;;;3.07;1.90;;;;;;;;;;5020056;28;20602;-80
2021/03/20 03:18:45;;;;;;;3.47;1.90;;;;;;;;;;5026574;28;20187;-79
2021/03/20 03:21:14;;;;;;;5.97;2.30;;;;;;;;;;5022632;28;20238;-80
2021/03/20 03:23:41;;;;;;;3.37;1.73;;;;;;;;;;5024678;28;20206;-80
2021/03/20 03:26:14;;;;;;;3.40;1.80;;;;;;;;;;5047130;28;20202;-80
2021/03/20 03:28:47;;;;;;;4.40;2.10;;;;;;;;;;5036846;28;20198;-80
2021/03/20 03:31:23;;;;;;;2.00;1.63;;;;;;;;;;5024108;28;20302;-80
2021/03/20 03:34:32;;;;;;;4.23;2.00;;;;;;;;;;5033026;28;20201;-79
2021/03/20 03:37:11;;;;;;;6.83;1.80;;;;;;;;;;5029284;28;20206;-80
2021/03/20 03:39:44;;;;;;;3.17;1.53;;;;;;;;;;5032892;28;20520;-80
2021/03/20 03:42:15;;;;;;;3.20;2.07;;;;;;;;;;5027421;28;20210;-81
2021/03/20 03:44:48;;;;;;;4.50;2.40;;;;;;;;;;5038045;28;20206;-81
2021/03/20 03:47:28;;;;;;;6.97;2.33;;;;;;;;;;5031060;28;20214;-79
2021/03/20 03:49:56;;;;;;;3.67;2.20;;;;;;;;;;5032783;28;20293;-81
2021/03/20 03:52:21;;;;;;;5.00;1.73;;;;;;;;;;5040595;28;20186;-80
2021/03/20 03:54:48;;;;;;;5.23;2.57;;;;;;;;;;5031417;28;20198;-82
2021/03/20 03:57:32;;;;;;;5.73;1.80;;;;;;;;;;5030209;28;20211;-78
2021/03/20 04:00:09;;;;;;;3.77;2.03;;;;;;;;;;5009135;28;20191;-81
2021/03/20 04:03:03;;;;;;;3.73;2.00;;;;;;;;;;5028596;28;20230;-79
2021/03/20 04:05:50;;;;;;;4.33;1.90;;;;;;;;;;5031750;28;20202;-80
2021/03/20 04:08:15;;;;;;;3.27;1.70;;;;;;;;;;5030326;28;20197;-80
2021/03/20 04:10:45;;;;;;;2.67;1.83;;;;;;;;;;5007428;28;20192;-80
2021/03/20 04:13:37;;;;;;;4.27;2.03;;;;;;;;;;5039797;28;20202;-80
2021/03/20 04:16:11;;;;;;;4.93;1.97;;;;;;;;;;5029261;28;20182;-81
2021/03/20 04:19:14;;;;;;;4.90;1.80;;;;;;;;;;5034084;28;20262;-80
2021/03/20 04:21:56;;;;;;;4.07;1.80;;;;;;;;;;5028623;28;20188;-79
2021/03/20 04:24:46;;;;;;;4.10;1.93;;;;;;;;;;5032080;28;20237;-81
2021/03/20 04:27:15;;;;;;;3.50;1.93;;;;;;;;;;5032405;28;20954;-80
2021/03/20 04:30:17;;;;;;;3.40;1.80;;;;;;;;;;5032428;28;20191;-80
2021/03/20 04:32:49;;;;;;;3.17;1.87;;;;;;;;;;5024681;28;20193;-79
2021/03/20 04:35:20;;;;;;;3.70;2.00;;;;;;;;;;5032842;28;20182;-80
2021/03/20 04:37:50;;;;;;;3.40;1.93;;;;;;;;;;5034830;28;20210;-80
2021/03/20 04:40:35;;;;;;;3.90;1.60;;;;;;;;;;5033420;28;20266;-80
2021/03/20 04:43:02;;;;;;;4.60;1.50;;;;;;;;;;5028478;28;20274;-80
2021/03/20 04:45:33;;;;;;;3.53;1.70;;;;;;;;;;5034129;28;20179;-80
2021/03/20 04:48:04;;;;;;;5.47;1.60;;;;;;;;;;5035788;28;20301;-80
2021/03/20 04:50:32;;;;;;;4.13;1.90;;;;;;;;;;5011745;28;20187;-79
2021/03/20 04:53:00;;;;;;;3.53;1.67;;;;;;;;;;5032277;28;20187;-80
2021/03/20 04:55:28;;;;;;;3.20;1.70;;;;;;;;;;5033543;28;20194;-81
2021/03/20 04:58:03;;;;;;;5.23;2.23;;;;;;;;;;5018312;28;20203;-80
2021/03/20 05:00:38;;;;;;;8.47;2.40;;;;;;;;;;5035559;28;20708;-80
2021/03/20 05:03:17;;;;;;;2.80;2.10;;;;;;;;;;5027344;28;20290;-80
2021/03/20 05:05:51;;;;;;;4.17;2.07;;;;;;;;;;5032022;28;20194;-80
2021/03/20 05:08:35;;;;;;;6.10;1.73;;;;;;;;;;5032428;28;20551;-78
2021/03/20 05:11:12;;;;;;;5.07;2.20;;;;;;;;;;5033816;28;20268;-80
2021/03/20 05:13:43;;;;;;;2.73;1.63;;;;;;;;;;5016866;28;20189;-80
2021/03/20 05:16:27;;;;;;;4.10;2.00;;;;;;;;;;5034887;28;20280;-80
2021/03/20 05:18:53;;;;;;;4.50;1.87;;;;;;;;;;5032203;28;20233;-80
2021/03/20 05:21:30;;;;;;;2.60;1.70;;;;;;;;;;5017322;28;20572;-80
2021/03/20 05:23:56;;;;;;;3.40;2.37;;;;;;;;;;5031329;28;20285;-81
2021/03/20 05:26:22;;;;;;;4.57;2.47;;;;;;;;;;5033788;28;20245;-80
2021/03/20 05:28:50;;;;;;;4.57;1.83;;;;;;;;;;5032017;28;20190;-79
2021/03/20 05:31:16;;;;;;;3.80;1.90;;;;;;;;;;5028081;28;20241;-78
2021/03/20 05:33:43;;;;;;;3.70;1.83;;;;;;;;;;5015205;28;20187;-80
2021/03/20 05:36:08;;;;;;;3.93;1.73;;;;;;;;;;5014876;28;20214;-81
2021/03/20 05:38:35;;;;;;;3.33;1.70;;;;;;;;;;5028371;28;20191;-79
2021/03/20 05:41:13;;;;;;;6.80;1.93;;;;;;;;;;5032654;28;20198;-80
2021/03/20 05:44:07;;;;;;;1.67;1.30;;;;;;;;;;5028355;28;20215;-80
2021/03/20 05:46:36;;;;;;;1.73;1.50;;;;;;;;;;5031472;28;20736;-80
2021/03/20 05:49:28;;;;;;;5.37;1.80;;;;;;;;;;5030879;28;20257;-80
2021/03/20 05:52:11;;;;;;;3.87;1.90;;;;;;;;;;5027615;28;20195;-80
2021/03/20 05:54:39;;;;;;;5.70;1.90;;;;;;;;;;5025102;28;20188;-80
2021/03/20 05:57:45;;;;;;;3.20;1.40;;;;;;;;;;5031249;28;20285;-81
2021/03/20 06:00:19;;;;;;;5.33;1.80;;;;;;;;;;5024442;23;20313;-43
2021/03/20 06:03:12;;;;;;;3.90;1.70;;;;;;;;;;5024033;28;20216;-43
2021/03/20 06:05:50;;;;;;;2.80;1.60;;;;;;;;;;5016916;28;20219;-46
2021/03/20 06:08:34;;;;;;;3.60;1.70;;;;;;;;;;5000214;28;20191;-43
2021/03/20 06:11:14;;;;;;;3.13;1.60;;;;;;;;;;5024871;28;20245;-44
2021/03/20 06:14:07;;;;;;;2.80;1.50;;;;;;;;;;5017644;28;20292;-44
2021/03/20 06:17:00;;;;;;;3.30;1.70;;;;;;;;;;5022076;28;20726;-42
2021/03/20 06:19:36;;;;;;;3.47;1.80;;;;;;;;;;5015647;28;20539;-43
2021/03/20 06:22:29;;;;;;;4.00;2.00;;;;;;;;;;5022099;28;20834;-43
2021/03/20 06:25:11;;;;;;;4.37;1.67;;;;;;;;;;5023022;28;20586;-44
2021/03/20 06:27:41;;;;;;;2.90;1.80;;;;;;;;;;5001406;28;20264;-43
2021/03/20 06:30:41;;;;;;;3.00;1.60;;;;;;;;;;5008331;28;20516;-43
2021/03/20 06:33:28;;;;;;;3.47;1.90;;;;;;;;;;5019054;28;20652;-44
2021/03/20 06:36:26;;;;;;;2.57;1.70;;;;;;;;;;5002525;28;20705;-44
2021/03/20 06:39:01;;;;;;;4.43;2.37;;;;;;;;;;5016025;28;20257;-43
2021/03/20 06:42:05;;;;;;;3.77;2.20;;;;;;;;;;5006759;28;20614;-43
2021/03/20 06:44:40;;;;;;;5.00;2.60;;;;;;;;;;4981499;28;20486;-44
2021/03/20 06:47:15;;;;;;;3.83;2.92;;;;;;;;;;4994720;28;20536;-44
2021/03/20 06:49:53;;;;;;;3.23;2.47;;;;;;;;;;5025741;28;20319;-42
2021/03/20 06:52:21;;;;;;;3.97;2.08;;;;;;;;;;5009031;28;20194;-44
2021/03/20 06:54:54;;;;;;;3.88;2.15;;;;;;;;;;5022854;28;20203;-44
2021/03/20 06:57:20;;;;;;;5.30;2.57;;;;;;;;;;5008377;28;20191;-43
2021/03/20 06:59:46;;;;;;;5.47;2.30;;;;;;;;;;5022259;28;20190;-44
2021/03/20 07:02:21;;;;;;;4.27;2.73;;;;;;;;;;5025422;28;20205;-44
2021/03/20 07:05:03;;;;;;;3.83;2.50;;;;;;;;;;5023697;28;20214;-44
2021/03/20 07:07:34;;;;;;;5.97;2.50;;;;;;;;;;5023570;28;20195;-43
2021/03/20 07:10:03;;;;;;;3.63;2.50;;;;;;;;;;5006671;28;20326;-44
2021/03/20 07:12:29;;;;;;;3.90;2.50;;;;;;;;;;5007714;28;20197;-42
2021/03/20 07:14:56;;;;;;;9.10;3.07;;;;;;;;;;5022786;28;20210;-45
2021/03/20 07:17:22;;;;;;;6.03;2.73;;;;;;;;;;5000654;28;20190;-42
2021/03/20 07:20:12;;;;;;;3.73;2.50;;;;;;;;;;5025698;28;20257;-44
2021/03/20 07:22:49;;;;;;;6.77;2.77;;;;;;;;;;5003780;28;20282;-44
2021/03/20 07:25:39;;;;;;;5.78;2.63;;;;;;;;;;5024849;28;20206;-44
2021/03/20 07:28:17;;;;;;;4.15;2.60;;;;;;;;;;5007273;28;20273;-45
2021/03/20 07:30:59;;;;;;;6.95;2.42;;;;;;;;;;5016311;28;20202;-45
2021/03/20 07:33:47;;;;;;;3.67;2.70;;;;;;;;;;5023250;28;20182;-45
2021/03/20 07:36:26;;;;;;;3.95;2.38;;;;;;;;;;5025926;28;20190;-45
2021/03/20 07:39:04;;;;;;;4.13;2.50;;;;;;;;;;5026960;28;20190;-45
2021/03/20 07:41:43;;;;;;;5.45;3.08;;;;;;;;;;5016864;28;20365;-45
2021/03/20 07:44:09;;;;;;;3.78;2.30;;;;;;;;;;4999106;28;20756;-44
2021/03/20 07:46:35;;;;;;;3.17;1.73;;;;;;;;;;4999761;28;20191;-43
2021/03/20 07:49:04;;;;;;;3.67;2.22;;;;;;;;;;5026957;28;20186;-44
2021/03/20 07:51:52;;;;;;;4.18;2.30;;;;;;;;;;5006424;28;20225;-45
2021/03/20 07:54:24;;;;;;;4.60;2.80;;;;;;;;;;5023842;28;20327;-45
2021/03/20 07:56:50;;;;;;;4.53;2.90;;;;;;;;;;5003765;28;20543;-43
2021/03/20 07:59:30;;;;;;;5.57;3.25;;;;;;;;;;5026353;28;20306;-44
2021/03/20 08:02:01;;;;;;;5.45;3.50;;;;;;;;;;5029423;28;20178;-45
2021/03/20 08:04:53;;;;;;;6.75;3.20;;;;;;;;;;5028001;28;20221;-44
2021/03/20 08:07:40;;;;;;;4.38;3.05;;;;;;;;;;5027315;28;20194;-44
2021/03/20 08:10:17;;;;;;;5.40;3.35;;;;;;;;;;5009664;28;20799;-43
2021/03/20 08:13:00;;;;;;;7.63;3.33;;;;;;;;;;5018804;28;20187;-45
2021/03/20 08:15:56;;;;;;;10.45;4.82;;;;;;;;;;5026008;28;20676;-44
2021/03/20 08:18:29;;;;;;;8.10;4.65;;;;;;;;;;5011662;28;20202;-44
2021/03/20 08:21:15;;;;;;;10.65;5.35;;;;;;;;;;5023852;28;20605;-44
2021/03/20 08:23:46;;;;;;;10.70;5.95;;;;;;;;;;4984903;28;20301;-43
2021/03/20 08:26:24;;;;;;;8.13;4.22;;;;;;;;;;5023777;28;20186;-46
2021/03/20 08:29:05;;;;;;;5.97;4.07;;;;;;;;;;5007551;28;20252;-45
2021/03/20 08:31:40;;;;;;;11.80;5.82;;;;;;;;;;5025067;28;20236;-45
2021/03/20 08:34:24;;;;;;;6.90;4.18;;;;;;;;;;5027090;28;20678;-45
2021/03/20 08:37:33;;;;;;;6.97;3.67;;;;;;;;;;5025748;28;20670;-44
2021/03/20 08:40:21;;;;;;;6.28;3.40;;;;;;;;;;5022272;28;20252;-45
2021/03/20 08:43:17;;;;;;;5.70;3.80;;;;;;;;;;5007328;28;20278;-45
2021/03/20 08:45:55;;;;;;;5.72;3.95;;;;;;;;;;5010313;28;20230;-47
2021/03/20 08:48:29;;;;;;;5.80;4.03;;;;;;;;;;5003871;28;20222;-45
2021/03/20 08:51:14;;;;;;;9.95;5.63;;;;;;;;;;5024462;28;20182;-44
2021/03/20 08:53:50;;;;;;;6.65;4.90;;;;;;;;;;5022852;28;20186;-45
2021/03/20 08:56:30;;;;;;;6.38;4.10;;;;;;;;;;5026495;28;20259;-44
2021/03/20 08:59:01;;;;;;;4.82;3.83;;;;;;;;;;5026312;28;20194;-45
2021/03/20 09:01:35;;;;;;;5.97;3.75;;;;;;;;;;5027618;28;20178;-45
2021/03/20 09:04:04;;;;;;;4.80;3.83;;;;;;;;;;5020907;28;20740;-45
2021/03/20 09:06:45;;;;;;;5.63;3.95;;;;;;;;;;5008744;28;20230;-44
2021/03/20 09:09:24;;;;;;;4.82;4.03;;;;;;;;;;5011732;28;20269;-45
2021/03/20 09:12:27;;;;;;;6.97;3.45;;;;;;;;;;5027526;28;20194;-45
2021/03/20 09:14:52;;;;;;;5.03;3.85;;;;;;;;;;5009428;28;20297;-45
2021/03/20 09:17:34;;;;;;;5.40;3.10;;;;;;;;;;5024331;28;20298;-44
2021/03/20 09:20:05;;;;;;;4.65;3.20;;;;;;;;;;5025607;28;20661;-47
2021/03/20 09:22:33;;;;;;;5.78;3.50;;;;;;;;;;5020923;28;20510;-53
2021/03/20 09:25:04;;;;;;;6.90;3.58;;;;;;;;;;5019473;28;20206;-52
2021/03/20 09:28:03;;;;;;;4.85;3.22;;;;;;;;;;5017779;28;20561;-49
2021/03/20 09:30:48;;;;;;;4.63;2.40;;;;;;;;;;5015297;28;20195;-51
2021/03/20 09:33:19;;;;;;;4.00;2.40;;;;;;;;;;5008992;28;20659;-49
2021/03/20 09:35:51;;;;;;;6.13;2.20;;;;;;;;;;5011175;28;20239;-49
2021/03/20 09:38:35;;;;;;;4.85;2.30;;;;;;;;;;5023962;28;20215;-48
2021/03/20 09:41:06;;;;;;;7.23;2.30;;;;;;;;;;5019880;28;20186;-49
2021/03/20 09:43:50;;;;;;;3.60;1.93;;;;;;;;;;5023955;28;20202;-48
2021/03/20 09:46:34;;;;;;;4.27;1.80;;;;;;;;;;5023376;28;20194;-50
2021/03/20 09:49:02;;;;;;;2.50;1.53;;;;;;;;;;5005473;28;20190;-50
2021/03/20 09:51:53;;;;;;;2.83;1.80;;;;;;;;;;5019661;28;20205;-48
2021/03/20 09:54:25;;;;;;;2.50;1.70;;;;;;;;;;5023725;28;20232;-48
2021/03/20 09:56:54;;;;;;;6.17;2.13;;;;;;;;;;5028725;28;20174;-48
2021/03/20 09:59:29;;;;;;;3.40;2.00;;;;;;;;;;5024772;28;20246;-50
2021/03/20 10:01:58;;;;;;;4.33;1.90;;;;;;;;;;5024879;28;20606;-48
2021/03/20 10:04:34;;;;;;;5.03;1.93;;;;;;;;;;5010055;28;20206;-50
2021/03/20 10:07:20;;;;;;;3.87;1.83;;;;;;;;;;5026415;28;20674;-48
2021/03/20 10:10:09;;;;;;;2.93;1.77;;;;;;;;;;5021476;28;20182;-50
2021/03/20 10:12:44;;;;;;;4.03;1.93;;;;;;;;;;5025214;28;20186;-48
2021/03/20 10:15:13;;;;;;;4.23;2.00;;;;;;;;;;5022198;28;20237;-49
2021/03/20 10:18:11;;;;;;;5.67;2.17;;;;;;;;;;5021959;28;20192;-49
2021/03/20 10:20:54;;;;;;;2.93;2.10;;;;;;;;;;4999323;28;20274;-48
2021/03/20 10:23:42;;;;;;;3.67;2.20;;;;;;;;;;5021120;28;20202;-49
2021/03/20 10:26:26;;;;;;;2.77;1.90;;;;;;;;;;5027055;28;20264;-49
2021/03/20 10:29:02;;;;;;;3.13;1.70;;;;;;;;;;5021357;28;20186;-48
2021/03/20 10:31:35;;;;;;;4.13;1.70;;;;;;;;;;5025028;28;20226;-49
2021/03/20 10:34:10;;;;;;;3.17;1.87;;;;;;;;;;5026307;28;20202;-48
2021/03/20 10:36:44;;;;;;;2.43;1.37;;;;;;;;;;5026660;28;20194;-50
2021/03/20 10:39:27;;;;;;;2.33;1.50;;;;;;;;;;5009260;28;20182;-49
2021/03/20 10:41:57;;;;;;;4.30;1.83;;;;;;;;;;5003125;28;20697;-51
2021/03/20 10:44:27;;;;;;;3.67;1.53;;;;;;;;;;5022978;28;20302;-48
2021/03/20 10:47:05;;;;;;;5.97;1.60;;;;;;;;;;5009395;28;20183;-49
2021/03/20 10:49:36;;;;;;;1.87;1.40;;;;;;;;;;5025154;28;20206;-50
2021/03/20 10:52:02;;;;;;;4.20;1.50;;;;;;;;;;5027130;28;20552;-50
2021/03/20 10:54:34;;;;;;;3.43;2.10;;;;;;;;;;5042359;23;20247;-46
2021/03/20 10:57:10;;;;;;;3.43;1.53;;;;;;;;;;4980717;28;20192;-48
2021/03/20 10:59:38;;;;;;;2.73;1.50;;;;;;;;;;4985734;28;20187;-46
2021/03/20 11:02:12;;;;;;;2.37;1.70;;;;;;;;;;4988702;28;20228;-46
2021/03/20 11:04:38;;;;;;;3.00;1.50;;;;;;;;;;4988686;28;20225;-45
2021/03/20 11:07:03;;;;;;;5.07;1.60;;;;;;;;;;4979209;28;20282;-47
2021/03/20 11:09:31;;;;;;;2.80;1.57;;;;;;;;;;4952714;28;20187;-46
2021/03/20 11:12:06;;;;;;;3.63;1.83;;;;;;;;;;4983354;28;20195;-46
2021/03/20 11:14:45;;;;;;;3.03;1.70;;;;;;;;;;4972287;28;20207;-49
2021/03/20 11:17:18;;;;;;;8.27;1.80;;;;;;;;;;4986977;28;20739;-45
2021/03/20 11:19:43;;;;;;;3.03;1.30;;;;;;;;;;4983272;28;20190;-47
2021/03/20 11:22:22;;;;;;;2.73;1.40;;;;;;;;;;4982826;28;20184;-47
2021/03/20 11:24:59;;;;;;;1.20;1.10;;;;;;;;;;4992519;28;20219;-47
2021/03/20 11:27:29;;;;;;;2.40;1.20;;;;;;;;;;4988156;28;20183;-46
2021/03/20 11:30:01;;;;;;;3.40;1.27;;;;;;;;;;4990716;28;20193;-47
2021/03/20 11:32:39;;;;;;;3.77;1.37;;;;;;;;;;4992206;28;20199;-47
2021/03/20 11:35:18;;;;;;;2.73;1.10;;;;;;;;;;4990800;28;20238;-46
2021/03/20 11:37:45;;;;;;;3.13;1.20;;;;;;;;;;4993463;28;20187;-46
2021/03/20 11:40:41;;;;;;;1.90;1.20;;;;;;;;;;4994049;28;20593;-46
2021/03/20 11:43:15;;;;;;;1.63;1.00;;;;;;;;;;4987674;28;20281;-45
2021/03/20 11:45:41;;;;;;;1.50;1.33;;;;;;;;;;4973463;28;20553;-45
2021/03/20 11:48:20;;;;;;;2.60;1.57;;;;;;;;;;4991130;28;20657;-47
2021/03/20 11:50:52;;;;;;;3.13;1.50;;;;;;;;;;4993983;28;20191;-47
2021/03/20 11:53:33;;;;;;;2.40;1.23;;;;;;;;;;4993893;28;20179;-47
2021/03/20 11:55:59;;;;;;;2.57;1.50;;;;;;;;;;4983215;28;20211;-47
2021/03/20 11:58:29;;;;;;;2.57;1.43;;;;;;;;;;4984452;28;20403;-48
2021/03/20 12:00:55;;;;;;;2.87;1.10;;;;;;;;;;4989649;28;20188;-47
2021/03/20 12:03:21;;;;;;;1.97;1.30;;;;;;;;;;4990134;28;20246;-47
2021/03/20 12:05:48;;;;;;;3.33;1.50;;;;;;;;;;4988501;28;20231;-47
2021/03/20 12:08:40;;;;;;;3.90;1.10;;;;;;;;;;4987109;28;20687;-48
2021/03/20 12:11:08;;;;;;;2.20;1.30;;;;;;;;;;4989846;28;20180;-47
2021/03/20 12:13:43;;;;;;;1.87;1.40;;;;;;;;;;4998027;28;20181;-47
2021/03/20 12:16:22;;;;;;;4.20;1.50;;;;;;;;;;4993583;28;20207;-47
2021/03/20 12:18:47;;;;;;;1.83;1.40;;;;;;;;;;4991446;28;20661;-47
2021/03/20 12:21:13;;;;;;;3.07;1.30;;;;;;;;;;4989634;28;20195;-45
2021/03/20 12:23:38;;;;;;;2.03;1.07;;;;;;;;;;4989070;28;20258;-47
2021/03/20 12:26:17;;;;;;;3.30;1.43;;;;;;;;;;4990483;28;20208;-47
2021/03/20 12:28:44;;;;;;;4.37;1.77;;;;;;;;;;4991667;28;20725;-47
2021/03/20 12:31:23;;;;;;;2.93;1.17;;;;;;;;;;4990066;28;20258;-46
2021/03/20 12:33:54;;;;;;;1.90;1.07;;;;;;;;;;4989700;28;20188;-46
2021/03/20 12:36:42;;;;;;;1.67;0.90;;;;;;;;;;4990413;28;20210;-46
2021/03/20 12:39:12;;;;;;;1.03;0.90;;;;;;;;;;4991538;28;20671;-47
2021/03/20 12:41:40;;;;;;;1.93;1.10;;;;;;;;;;4976008;28;20200;-47
2021/03/20 12:44:10;;;;;;;3.83;1.27;;;;;;;;;;4976870;28;20203;-47
2021/03/20 12:46:38;;;;;;;2.70;1.60;;;;;;;;;;4966649;28;20568;-47
2021/03/20 12:49:03;;;;;;;1.73;0.97;;;;;;;;;;4984584;28;20653;-46
2021/03/20 12:51:29;;;;;;;2.00;1.67;;;;;;;;;;4983798;28;20190;-46
2021/03/20 12:53:54;;;;;;;3.63;1.37;;;;;;;;;;4988018;28;20713;-46
2021/03/20 12:56:19;;;;;;;1.60;1.30;;;;;;;;;;4986084;28;20204;-47
2021/03/20 12:58:45;;;;;;;3.73;1.30;;;;;;;;;;4981722;28;20395;-50
2021/03/20 13:01:10;;;;;;;1.93;1.30;;;;;;;;;;4985669;28;20188;-47
2021/03/20 13:03:36;;;;;;;2.03;1.47;;;;;;;;;;4986099;28;20207;-47
2021/03/20 13:06:02;;;;;;;1.40;1.10;;;;;;;;;;4983779;28;20213;-47
2021/03/20 13:08:28;;;;;;;1.77;1.20;;;;;;;;;;4986680;28;20195;-46
2021/03/20 13:10:53;;;;;;;2.80;1.30;;;;;;;;;;4982047;28;20198;-45
2021/03/20 13:13:20;;;;;;;3.07;1.33;;;;;;;;;;4982491;28;20637;-46
2021/03/20 13:15:45;;;;;;;1.50;1.20;;;;;;;;;;4986921;28;20207;-50
2021/03/20 13:18:10;;;;;;;2.77;1.50;;;;;;;;;;4980509;28;20196;-46
2021/03/20 13:20:36;;;;;;;3.37;1.50;;;;;;;;;;4986200;28;20420;-47
2021/03/20 13:23:02;;;;;;;2.37;1.40;;;;;;;;;;4977855;28;20211;-48
2021/03/20 13:25:33;;;;;;;2.53;1.60;;;;;;;;;;4979908;28;20307;-47
2021/03/20 13:27:59;;;;;;;1.53;1.20;;;;;;;;;;4984630;28;20258;-47
2021/03/20 13:30:26;;;;;;;2.20;1.13;;;;;;;;;;4983869;28;20183;-46
2021/03/20 13:32:55;;;;;;;2.23;1.10;;;;;;;;;;4969802;28;20267;-47
2021/03/20 13:35:23;;;;;;;1.53;1.27;;;;;;;;;;4964604;28;20212;-48
2021/03/20 13:37:49;;;;;;;3.07;1.60;;;;;;;;;;4982653;28;20198;-46
2021/03/20 13:40:14;;;;;;;3.03;1.43;;;;;;;;;;4978677;28;20196;-47
2021/03/20 13:42:40;;;;;;;2.27;1.30;;;;;;;;;;4982079;28;20232;-48
2021/03/20 13:45:09;;;;;;;5.50;1.57;;;;;;;;;;4979560;28;20216;-46
2021/03/20 13:47:34;;;;;;;1.23;0.80;;;;;;;;;;4983720;28;20232;-47
2021/03/20 13:50:00;;;;;;;6.53;1.23;;;;;;;;;;4985545;28;20235;-47
2021/03/20 13:52:25;;;;;;;2.20;0.87;;;;;;;;;;4985114;28;20235;-46
2021/03/20 13:54:50;;;;;;;1.87;1.10;;;;;;;;;;4987312;28;20266;-47
2021/03/20 13:57:15;;;;;;;2.20;1.10;;;;;;;;;;4985319;28;20192;-46
2021/03/20 13:59:41;;;;;;;1.53;1.13;;;;;;;;;;4980649;28;20196;-44
2021/03/20 14:02:08;;;;;;;2.43;1.53;;;;;;;;;;4988824;28;20317;-46
2021/03/20 14:04:33;;;;;;;1.20;0.90;;;;;;;;;;4985135;28;20212;-47
2021/03/20 14:07:20;;;;;;;2.57;1.23;;;;;;;;;;4984652;28;20199;-47
2021/03/20 14:09:46;;;;;;;2.23;1.10;;;;;;;;;;4972055;28;20204;-47
2021/03/20 14:12:11;;;;;;;1.50;1.10;;;;;;;;;;4981175;28;20184;-45
2021/03/20 14:14:36;;;;;;;1.03;0.93;;;;;;;;;;4984419;28;20739;-45
2021/03/20 14:17:01;;;;;;;2.37;1.30;;;;;;;;;;4981253;28;20714;-46
2021/03/20 14:19:27;;;;;;;4.03;1.23;;;;;;;;;;4983967;28;20196;-47
2021/03/20 14:21:52;;;;;;;1.50;1.20;;;;;;;;;;4981635;28;20398;-46
2021/03/20 14:24:17;;;;;;;2.50;1.23;;;;;;;;;;4986364;28;20245;-46
2021/03/20 14:26:43;;;;;;;3.10;1.30;;;;;;;;;;4984351;28;20644;-47
2021/03/20 14:29:08;;;;;;;2.63;1.40;;;;;;;;;;4973574;28;20670;-49
2021/03/20 14:31:33;;;;;;;1.20;0.97;;;;;;;;;;4981825;28;20227;-48
2021/03/20 14:33:58;;;;;;;2.60;1.40;;;;;;;;;;4965846;28;20279;-47
2021/03/20 14:36:24;;;;;;;2.50;1.40;;;;;;;;;;4983205;28;20213;-45
2021/03/20 14:38:49;;;;;;;2.97;1.10;;;;;;;;;;4971426;28;20193;-48
2021/03/20 14:41:15;;;;;;;2.27;1.20;;;;;;;;;;4980507;28;20188;-47
2021/03/20 14:43:40;;;;;;;2.40;1.00;;;;;;;;;;4966512;28;20204;-48
2021/03/20 14:46:05;;;;;;;3.10;1.30;;;;;;;;;;4966597;28;20220;-46
2021/03/20 14:48:34;;;;;;;2.73;1.50;;;;;;;;;;4984311;28;20188;-47
2021/03/20 14:51:00;;;;;;;4.20;1.43;;;;;;;;;;4980718;28;20176;-47
2021/03/20 14:53:25;;;;;;;2.47;1.83;;;;;;;;;;4965826;28;20368;-47
2021/03/20 14:55:51;;;;;;;3.27;1.50;;;;;;;;;;4979568;28;20712;-47
2021/03/20 14:58:17;;;;;;;2.07;1.47;;;;;;;;;;4987245;28;20192;-48
2021/03/20 15:00:45;;;;;;;4.30;1.40;;;;;;;;;;4974307;28;20187;-47
2021/03/20 15:03:11;;;;;;;3.20;1.50;;;;;;;;;;4985645;28;20198;-47
2021/03/20 15:05:37;;;;;;;2.17;1.30;;;;;;;;;;4961091;28;20700;-46
2021/03/20 15:08:03;;;;;;;3.07;1.63;;;;;;;;;;4985559;28;20241;-47
2021/03/20 15:10:32;;;;;;;2.07;1.40;;;;;;;;;;4981364;28;20582;-47
2021/03/20 15:12:58;;;;;;;2.20;1.40;;;;;;;;;;4985104;28;20192;-46
2021/03/20 15:15:25;;;;;;;2.50;1.27;;;;;;;;;;4986649;28;20216;-45
2021/03/20 15:17:51;;;;;;;1.40;1.17;;;;;;;;;;4986450;28;20675;-47
2021/03/20 15:20:18;;;;;;;3.07;1.50;;;;;;;;;;4987077;28;20198;-47